Rosecrans, Pennsylvania
Current Conditions -  °F | °C
As of 4:54 PM on Monday 24 Nov 2014 (Local Time) from KIPT Reporting Station
Few Clouds Few Clouds  
Wind Chill: 66°   Ceiling: Unl
Heat Index: 66°   Visibility: 10mi
Dew Point: 50°   Wind: 16mph
Humidity: 56%   Direction: 170°S
Pressure: 29.51"   Gusts: 32mph
Location:  41.029°N, 77.3175°W
Report Text: KIPT 242154Z 17014G28KT 10SM FEW095 19/10 A2951 RMK AO2 PK WND 16030/2058 SLP991 T01890100
Loading
Personal Weather Stations






























Interactive Weather Map New forecast layout! Learn more

10-Day Weather Forecast

Advertisements
Track Severe Weather on mobile